Gosnell, Arkansas
Current Conditions -  °F | °C
As of 4:53 AM on Sunday 21 Dec 2014 (Local Time) from KHKA Reporting Station
Clear Clear  
Wind Chill: 30°   Ceiling: Unl
Heat Index: 30°   Visibility: 8mi
Dew Point: 28°   Wind: 3mph
Humidity: 92%   Direction: 40°NE
Pressure: 30.23"   Gusts: NA
Location:  35.96°N, 89.97°W
Report Text: KHKA 211053Z AUTO 04003KT 8SM CLR M01/M02 A3023 RMK AO2 SLP240 T10111022
Loading
Personal Weather Stations






























Interactive Weather Map New forecast layout! Learn more

10-Day Weather Forecast

Advertisements
Track Severe Weather on mobile